sensor_id;sensor_type;location;lat;lon;timestamp;pressure;altitude;pressure_sealevel;temperature;humidity
18985;BME280;9626;52.552;13.436;2024-01-30T00:02:12;102325.75;;;4.44;92.06
18985;BME280;9626;52.552;13.436;2024-01-30T00:04:38;102326.63;;;4.43;91.86
18985;BME280;9626;52.552;13.436;2024-01-30T00:07:04;102324.06;;;4.45;92.33
18985;BME280;9626;52.552;13.436;2024-01-30T00:09:30;102327.06;;;4.30;93.15
18985;BME280;9626;52.552;13.436;2024-01-30T00:11:56;102320.50;;;4.44;92.79
18985;BME280;9626;52.552;13.436;2024-01-30T00:14:22;102325.69;;;4.41;92.18
18985;BME280;9626;52.552;13.436;2024-01-30T00:16:49;102328.03;;;4.33;93.37
18985;BME280;9626;52.552;13.436;2024-01-30T00:19:15;102322.16;;;4.40;92.51
18985;BME280;9626;52.552;13.436;2024-01-30T00:21:41;102325.63;;;4.39;92.25
18985;BME280;9626;52.552;13.436;2024-01-30T00:24:07;102330.78;;;4.36;92.79
18985;BME280;9626;52.552;13.436;2024-01-30T00:26:33;102328.78;;;4.29;94.16
18985;BME280;9626;52.552;13.436;2024-01-30T00:28:59;102327.28;;;4.37;93.88
18985;BME280;9626;52.552;13.436;2024-01-30T00:31:25;102321.88;;;4.31;94.10
18985;BME280;9626;52.552;13.436;2024-01-30T00:33:51;102329.56;;;4.27;93.71
18985;BME280;9626;52.552;13.436;2024-01-30T00:36:17;102328.44;;;4.18;94.42
18985;BME280;9626;52.552;13.436;2024-01-30T00:38:43;102330.41;;;4.24;93.96
18985;BME280;9626;52.552;13.436;2024-01-30T00:41:09;102328.78;;;4.29;93.63
18985;BME280;9626;52.552;13.436;2024-01-30T00:43:36;102322.31;;;4.18;95.22
18985;BME280;9626;52.552;13.436;2024-01-30T00:46:02;102321.78;;;4.28;94.70
18985;BME280;9626;52.552;13.436;2024-01-30T00:48:29;102320.66;;;4.20;95.39
18985;BME280;9626;52.552;13.436;2024-01-30T00:50:55;102319.81;;;4.22;95.23
18985;BME280;9626;52.552;13.436;2024-01-30T00:53:21;102322.69;;;4.30;94.28
18985;BME280;9626;52.552;13.436;2024-01-30T00:55:47;102319.78;;;4.21;95.65
18985;BME280;9626;52.552;13.436;2024-01-30T00:58:13;102320.16;;;4.33;94.11
18985;BME280;9626;52.552;13.436;2024-01-30T01:00:39;102327.16;;;4.33;93.86
18985;BME280;9626;52.552;13.436;2024-01-30T01:03:05;102324.50;;;4.31;93.36
18985;BME280;9626;52.552;13.436;2024-01-30T01:05:32;102319.25;;;4.31;93.70
18985;BME280;9626;52.552;13.436;2024-01-30T01:07:57;102323.53;;;4.29;93.62
18985;BME280;9626;52.552;13.436;2024-01-30T01:10:24;102326.28;;;4.32;93.88
18985;BME280;9626;52.552;13.436;2024-01-30T01:12:50;102328.16;;;4.36;92.94
18985;BME280;9626;52.552;13.436;2024-01-30T01:15:16;102321.63;;;4.23;93.69
18985;BME280;9626;52.552;13.436;2024-01-30T01:17:42;102325.03;;;4.21;93.50
18985;BME280;9626;52.552;13.436;2024-01-30T01:20:08;102323.19;;;4.18;94.91
18985;BME280;9626;52.552;13.436;2024-01-30T01:22:34;102321.34;;;4.16;93.92
18985;BME280;9626;52.552;13.436;2024-01-30T01:25:00;102324.84;;;4.15;94.13
18985;BME280;9626;52.552;13.436;2024-01-30T01:27:27;102323.28;;;4.20;94.60
18985;BME280;9626;52.552;13.436;2024-01-30T01:29:53;102323.94;;;4.14;94.80
18985;BME280;9626;52.552;13.436;2024-01-30T01:32:19;102320.28;;;4.09;95.41
18985;BME280;9626;52.552;13.436;2024-01-30T01:34:45;102319.28;;;4.05;96.70
18985;BME280;9626;52.552;13.436;2024-01-30T01:37:11;102319.88;;;3.97;96.55
18985;BME280;9626;52.552;13.436;2024-01-30T01:39:37;102319.19;;;4.02;96.04
18985;BME280;9626;52.552;13.436;2024-01-30T01:42:04;102317.09;;;3.92;97.25
18985;BME280;9626;52.552;13.436;2024-01-30T01:44:30;102317.09;;;3.92;96.71
18985;BME280;9626;52.552;13.436;2024-01-30T01:46:56;102318.88;;;3.93;97.25
18985;BME280;9626;52.552;13.436;2024-01-30T01:49:24;102321.28;;;3.87;96.99
18985;BME280;9626;52.552;13.436;2024-01-30T01:51:51;102316.69;;;3.80;98.68
18985;BME280;9626;52.552;13.436;2024-01-30T01:54:19;102311.56;;;3.84;97.12
18985;BME280;9626;52.552;13.436;2024-01-30T01:56:46;102318.25;;;3.75;98.77
18985;BME280;9626;52.552;13.436;2024-01-30T01:59:12;102311.22;;;3.73;98.83
18985;BME280;9626;52.552;13.436;2024-01-30T02:01:38;102305.03;;;3.71;99.37
18985;BME280;9626;52.552;13.436;2024-01-30T02:04:07;102308.41;;;3.67;99.07
18985;BME280;9626;52.552;13.436;2024-01-30T02:06:34;102309.47;;;3.48;99.90
18985;BME280;9626;52.552;13.436;2024-01-30T02:09:01;102312.25;;;3.53;100.00
18985;BME280;9626;52.552;13.436;2024-01-30T02:11:27;102312.44;;;3.58;100.00
18985;BME280;9626;52.552;13.436;2024-01-30T02:13:54;102307.78;;;3.50;100.00
18985;BME280;9626;52.552;13.436;2024-01-30T02:16:19;102307.69;;;3.47;100.00
18985;BME280;9626;52.552;13.436;2024-01-30T02:18:45;102311.88;;;3.42;100.00
18985;BME280;9626;52.552;13.436;2024-01-30T02:21:15;102317.19;;;3.44;100.00
18985;BME280;9626;52.552;13.436;2024-01-30T02:23:43;102316.84;;;3.34;100.00
18985;BME280;9626;52.552;13.436;2024-01-30T02:26:09;102313.16;;;3.29;100.00
18985;BME280;9626;52.552;13.436;2024-01-30T02:28:36;102310.06;;;3.40;100.00
18985;BME280;9626;52.552;13.436;2024-01-30T02:31:02;102301.25;;;3.37;100.00
18985;BME280;9626;52.552;13.436;2024-01-30T02:33:28;102295.22;;;3.40;100.00
18985;BME280;9626;52.552;13.436;2024-01-30T02:35:54;102304.59;;;3.33;100.00
18985;BME280;9626;52.552;13.436;2024-01-30T02:38:20;102307.31;;;3.36;100.00
18985;BME280;9626;52.552;13.436;2024-01-30T02:40:46;102299.34;;;3.33;100.00
18985;BME280;9626;52.552;13.436;2024-01-30T02:43:12;102307.53;;;3.43;100.00
18985;BME280;9626;52.552;13.436;2024-01-30T02:45:38;102306.28;;;3.31;100.00
18985;BME280;9626;52.552;13.436;2024-01-30T02:48:05;102308.16;;;3.35;100.00
18985;BME280;9626;52.552;13.436;2024-01-30T02:50:31;102302.69;;;3.29;100.00
18985;BME280;9626;52.552;13.436;2024-01-30T02:52:57;102297.06;;;3.43;100.00
18985;BME280;9626;52.552;13.436;2024-01-30T02:55:23;102296.78;;;3.35;100.00
18985;BME280;9626;52.552;13.436;2024-01-30T02:57:49;102296.09;;;3.41;100.00
18985;BME280;9626;52.552;13.436;2024-01-30T03:00:15;102303.84;;;3.62;100.00
18985;BME280;9626;52.552;13.436;2024-01-30T03:02:41;102294.44;;;3.43;100.00
18985;BME280;9626;52.552;13.436;2024-01-30T03:05:07;102302.69;;;3.29;100.00
18985;BME280;9626;52.552;13.436;2024-01-30T03:07:34;102291.88;;;3.44;100.00
18985;BME280;9626;52.552;13.436;2024-01-30T03:10:00;102288.47;;;3.47;100.00
18985;BME280;9626;52.552;13.436;2024-01-30T03:12:26;102283.75;;;3.36;100.00
18985;BME280;9626;52.552;13.436;2024-01-30T03:14:52;102288.09;;;3.36;100.00
18985;BME280;9626;52.552;13.436;2024-01-30T03:17:18;102282.97;;;3.39;100.00
18985;BME280;9626;52.552;13.436;2024-01-30T03:19:44;102284.69;;;3.38;100.00
18985;BME280;9626;52.552;13.436;2024-01-30T03:22:10;102290.66;;;3.34;100.00
18985;BME280;9626;52.552;13.436;2024-01-30T03:24:36;102288.63;;;3.27;100.00
18985;BME280;9626;52.552;13.436;2024-01-30T03:27:03;102290.44;;;3.28;100.00
18985;BME280;9626;52.552;13.436;2024-01-30T03:29:29;102284.41;;;3.31;100.00
18985;BME280;9626;52.552;13.436;2024-01-30T03:31:55;102284.22;;;3.25;100.00
18985;BME280;9626;52.552;13.436;2024-01-30T03:34:21;102278.69;;;3.17;100.00
18985;BME280;9626;52.552;13.436;2024-01-30T03:36:47;102286.53;;;3.17;100.00
18985;BME280;9626;52.552;13.436;2024-01-30T03:39:14;102278.63;;;3.15;100.00
18985;BME280;9626;52.552;13.436;2024-01-30T03:41:43;102274.19;;;3.13;100.00
18985;BME280;9626;52.552;13.436;2024-01-30T03:44:10;102276.75;;;3.11;100.00
18985;BME280;9626;52.552;13.436;2024-01-30T03:46:36;102278.34;;;3.08;100.00
18985;BME280;9626;52.552;13.436;2024-01-30T03:49:02;102275.84;;;3.11;100.00
18985;BME280;9626;52.552;13.436;2024-01-30T03:51:29;102279.31;;;3.10;100.00
18985;BME280;9626;52.552;13.436;2024-01-30T03:53:55;102271.31;;;3.07;100.00
18985;BME280;9626;52.552;13.436;2024-01-30T03:56:21;102275.63;;;3.04;100.00
18985;BME280;9626;52.552;13.436;2024-01-30T03:58:47;102278.97;;;3.00;100.00
18985;BME280;9626;52.552;13.436;2024-01-30T04:01:14;102275.34;;;2.97;100.00
18985;BME280;9626;52.552;13.436;2024-01-30T04:03:41;102268.50;;;3.00;100.00
18985;BME280;9626;52.552;13.436;2024-01-30T04:06:08;102265.78;;;2.97;100.00
18985;BME280;9626;52.552;13.436;2024-01-30T04:08:34;102270.38;;;3.04;100.00
18985;BME280;9626;52.552;13.436;2024-01-30T04:11:07;102271.00;;;2.97;100.00
18985;BME280;9626;52.552;13.436;2024-01-30T04:13:33;102271.88;;;2.98;100.00
18985;BME280;9626;52.552;13.436;2024-01-30T04:16:00;102273.94;;;3.07;100.00
18985;BME280;9626;52.552;13.436;2024-01-30T04:18:28;102279.50;;;3.16;100.00
18985;BME280;9626;52.552;13.436;2024-01-30T04:20:54;102284.69;;;3.14;100.00
18985;BME280;9626;52.552;13.436;2024-01-30T04:23:21;102283.59;;;3.08;100.00
18985;BME280;9626;52.552;13.436;2024-01-30T04:25:47;102282.84;;;3.12;100.00
18985;BME280;9626;52.552;13.436;2024-01-30T04:28:13;102287.66;;;2.99;100.00
18985;BME280;9626;52.552;13.436;2024-01-30T04:30:39;102280.97;;;3.08;100.00
18985;BME280;9626;52.552;13.436;2024-01-30T04:33:06;102280.97;;;3.08;100.00
18985;BME280;9626;52.552;13.436;2024-01-30T04:35:32;102274.06;;;3.10;100.00
18985;BME280;9626;52.552;13.436;2024-01-30T04:38:02;102272.50;;;3.15;100.00
18985;BME280;9626;52.552;13.436;2024-01-30T04:40:29;102264.81;;;3.19;100.00
18985;BME280;9626;52.552;13.436;2024-01-30T04:42:55;102263.91;;;3.19;100.00
18985;BME280;9626;52.552;13.436;2024-01-30T04:45:21;102263.81;;;3.16;100.00
18985;BME280;9626;52.552;13.436;2024-01-30T04:47:47;102266.75;;;3.25;100.00
18985;BME280;9626;52.552;13.436;2024-01-30T04:50:13;102259.25;;;3.10;100.00
18985;BME280;9626;52.552;13.436;2024-01-30T04:52:39;102269.03;;;3.16;100.00
18985;BME280;9626;52.552;13.436;2024-01-30T04:55:05;102261.91;;;3.12;100.00
18985;BME280;9626;52.552;13.436;2024-01-30T04:57:31;102261.88;;;3.10;100.00
18985;BME280;9626;52.552;13.436;2024-01-30T04:59:59;102261.56;;;3.27;100.00
18985;BME280;9626;52.552;13.436;2024-01-30T05:02:25;102264.81;;;3.19;100.00
18985;BME280;9626;52.552;13.436;2024-01-30T05:04:51;102265.81;;;3.23;100.00
18985;BME280;9626;52.552;13.436;2024-01-30T05:07:17;102259.19;;;3.09;100.00
18985;BME280;9626;52.552;13.436;2024-01-30T05:09:44;102254.25;;;3.16;100.00
18985;BME280;9626;52.552;13.436;2024-01-30T05:12:10;102267.88;;;3.08;100.00
18985;BME280;9626;52.552;13.436;2024-01-30T05:14:36;102261.25;;;3.17;100.00
18985;BME280;9626;52.552;13.436;2024-01-30T05:17:02;102260.38;;;3.17;100.00
18985;BME280;9626;52.552;13.436;2024-01-30T05:19:29;102258.19;;;3.29;100.00
18985;BME280;9626;52.552;13.436;2024-01-30T05:21:55;102262.94;;;3.15;100.00
18985;BME280;9626;52.552;13.436;2024-01-30T05:24:21;102257.75;;;3.17;100.00
18985;BME280;9626;52.552;13.436;2024-01-30T05:26:47;102263.72;;;3.13;100.00
18985;BME280;9626;52.552;13.436;2024-01-30T05:29:13;102263.47;;;3.07;100.00
18985;BME280;9626;52.552;13.436;2024-01-30T05:31:39;102257.66;;;3.14;100.00
18985;BME280;9626;52.552;13.436;2024-01-30T05:34:05;102259.19;;;3.09;100.00
18985;BME280;9626;52.552;13.436;2024-01-30T05:36:32;102256.69;;;3.12;100.00
18985;BME280;9626;52.552;13.436;2024-01-30T05:38:58;102250.47;;;3.08;100.00
18985;BME280;9626;52.552;13.436;2024-01-30T05:41:24;102256.78;;;3.15;100.00
18985;BME280;9626;52.552;13.436;2024-01-30T05:43:50;102255.84;;;3.13;100.00
18985;BME280;9626;52.552;13.436;2024-01-30T05:46:16;102253.25;;;3.13;100.00
18985;BME280;9626;52.552;13.436;2024-01-30T05:48:42;102250.66;;;3.14;100.00
18985;BME280;9626;52.552;13.436;2024-01-30T05:51:08;102253.00;;;3.07;100.00
18985;BME280;9626;52.552;13.436;2024-01-30T05:53:34;102246.09;;;3.09;100.00
18985;BME280;9626;52.552;13.436;2024-01-30T05:56:04;102253.13;;;3.10;100.00
18985;BME280;9626;52.552;13.436;2024-01-30T05:58:30;102253.34;;;3.16;100.00
18985;BME280;9626;52.552;13.436;2024-01-30T06:00:59;102256.25;;;3.24;100.00
18985;BME280;9626;52.552;13.436;2024-01-30T06:03:25;102255.28;;;3.21;100.00
18985;BME280;9626;52.552;13.436;2024-01-30T06:05:51;102258.47;;;3.13;100.00
18985;BME280;9626;52.552;13.436;2024-01-30T06:08:17;102253.97;;;3.09;100.00
18985;BME280;9626;52.552;13.436;2024-01-30T06:10:43;102247.94;;;3.11;100.00
18985;BME280;9626;52.552;13.436;2024-01-30T06:13:09;102247.03;;;3.11;100.00
18985;BME280;9626;52.552;13.436;2024-01-30T06:15:35;102249.56;;;3.08;100.00
18985;BME280;9626;52.552;13.436;2024-01-30T06:18:01;102255.69;;;3.08;100.00
18985;BME280;9626;52.552;13.436;2024-01-30T06:20:28;102256.69;;;3.12;100.00
18985;BME280;9626;52.552;13.436;2024-01-30T06:22:54;102253.00;;;3.07;100.00
18985;BME280;9626;52.552;13.436;2024-01-30T06:25:20;102246.84;;;3.04;100.00
18985;BME280;9626;52.552;13.436;2024-01-30T06:27:46;102242.47;;;3.05;100.00
18985;BME280;9626;52.552;13.436;2024-01-30T06:30:12;102245.44;;;3.14;100.00
18985;BME280;9626;52.552;13.436;2024-01-30T06:32:38;102249.56;;;3.08;100.00
18985;BME280;9626;52.552;13.436;2024-01-30T06:35:05;102247.75;;;3.07;100.00
18985;BME280;9626;52.552;13.436;2024-01-30T06:37:31;102246.00;;;3.06;100.00
18985;BME280;9626;52.552;13.436;2024-01-30T06:39:57;102248.72;;;3.09;100.00
18985;BME280;9626;52.552;13.436;2024-01-30T06:42:24;102244.56;;;3.14;100.00
18985;BME280;9626;52.552;13.436;2024-01-30T06:44:50;102249.78;;;3.14;100.00
18985;BME280;9626;52.552;13.436;2024-01-30T06:47:16;102246.00;;;3.06;100.00
18985;BME280;9626;52.552;13.436;2024-01-30T06:49:42;102247.75;;;3.07;100.00
18985;BME280;9626;52.552;13.436;2024-01-30T06:52:11;102246.00;;;3.06;100.00
18985;BME280;9626;52.552;13.436;2024-01-30T06:54:37;102248.81;;;3.12;100.00
18985;BME280;9626;52.552;13.436;2024-01-30T06:57:03;102249.66;;;3.11;100.00
18985;BME280;9626;52.552;13.436;2024-01-30T06:59:29;102248.09;;;3.16;100.00
18985;BME280;9626;52.552;13.436;2024-01-30T07:01:55;102241.22;;;3.18;100.00
18985;BME280;9626;52.552;13.436;2024-01-30T07:04:21;102244.72;;;3.18;100.00
18985;BME280;9626;52.552;13.436;2024-01-30T07:06:47;102247.91;;;3.10;100.00
18985;BME280;9626;52.552;13.436;2024-01-30T07:09:14;102247.22;;;3.15;100.00
18985;BME280;9626;52.552;13.436;2024-01-30T07:11:40;102248.81;;;3.12;100.00
18985;BME280;9626;52.552;13.436;2024-01-30T07:14:07;102249.16;;;3.21;100.00
18985;BME280;9626;52.552;13.436;2024-01-30T07:16:33;102255.31;;;3.23;100.00
18985;BME280;9626;52.552;13.436;2024-01-30T07:18:59;102250.91;;;3.20;100.00
18985;BME280;9626;52.552;13.436;2024-01-30T07:21:26;102250.72;;;3.16;100.00
18985;BME280;9626;52.552;13.436;2024-01-30T07:23:54;102250.22;;;3.26;100.00
18985;BME280;9626;52.552;13.436;2024-01-30T07:26:21;102254.56;;;3.26;100.00
18985;BME280;9626;52.552;13.436;2024-01-30T07:28:47;102243.78;;;3.16;100.00
18985;BME280;9626;52.552;13.436;2024-01-30T07:31:13;102245.53;;;3.17;100.00
18985;BME280;9626;52.552;13.436;2024-01-30T07:33:39;102243.09;;;3.22;100.00
18985;BME280;9626;52.552;13.436;2024-01-30T07:36:05;102249.81;;;3.40;100.00
18985;BME280;9626;52.552;13.436;2024-01-30T07:38:31;102242.94;;;3.43;100.00
18985;BME280;9626;52.552;13.436;2024-01-30T07:40:58;102240.13;;;3.37;100.00
18985;BME280;9626;52.552;13.436;2024-01-30T07:43:24;102237.66;;;3.42;100.00
18985;BME280;9626;52.552;13.436;2024-01-30T07:45:50;102236.00;;;3.44;100.00
18985;BME280;9626;52.552;13.436;2024-01-30T07:48:16;102233.06;;;3.60;100.00
18985;BME280;9626;52.552;13.436;2024-01-30T07:50:42;102237.22;;;3.81;100.00
18985;BME280;9626;52.552;13.436;2024-01-30T07:53:08;102234.22;;;3.68;100.00
18985;BME280;9626;52.552;13.436;2024-01-30T07:55:34;102233.69;;;3.80;100.00
18985;BME280;9626;52.552;13.436;2024-01-30T07:58:01;102233.13;;;3.89;100.00
18985;BME280;9626;52.552;13.436;2024-01-30T08:00:27;102239.34;;;3.93;100.00
18985;BME280;9626;52.552;13.436;2024-01-30T08:02:55;102240.44;;;3.99;100.00
18985;BME280;9626;52.552;13.436;2024-01-30T08:05:21;102236.97;;;4.00;100.00
18985;BME280;9626;52.552;13.436;2024-01-30T08:07:50;102232.44;;;3.95;100.00
18985;BME280;9626;52.552;13.436;2024-01-30T08:10:16;102233.59;;;4.04;100.00
18985;BME280;9626;52.552;13.436;2024-01-30T08:12:46;102232.22;;;4.16;100.00
18985;BME280;9626;52.552;13.436;2024-01-30T08:15:12;102233.94;;;4.15;100.00
18985;BME280;9626;52.552;13.436;2024-01-30T08:17:39;102237.56;;;4.19;100.00
18985;BME280;9626;52.552;13.436;2024-01-30T08:20:07;102239.34;;;4.20;100.00
18985;BME280;9626;52.552;13.436;2024-01-30T08:22:34;102232.03;;;4.10;100.00
18985;BME280;9626;52.552;13.436;2024-01-30T08:25:00;102235.31;;;4.02;100.00
18985;BME280;9626;52.552;13.436;2024-01-30T08:27:26;102224.13;;;4.08;100.00
18985;BME280;9626;52.552;13.436;2024-01-30T08:29:52;102229.03;;;3.97;100.00
18985;BME280;9626;52.552;13.436;2024-01-30T08:32:18;102227.56;;;4.07;100.00
18985;BME280;9626;52.552;13.436;2024-01-30T08:34:44;102227.56;;;4.07;100.00
18985;BME280;9626;52.552;13.436;2024-01-30T08:37:10;102221.72;;;4.16;100.00
18985;BME280;9626;52.552;13.436;2024-01-30T08:39:37;102221.94;;;4.22;100.00
18985;BME280;9626;52.552;13.436;2024-01-30T08:42:03;102217.72;;;4.27;100.00
18985;BME280;9626;52.552;13.436;2024-01-30T08:44:29;102223.34;;;4.39;100.00
18985;BME280;9626;52.552;13.436;2024-01-30T08:46:55;102221.75;;;4.45;100.00
18985;BME280;9626;52.552;13.436;2024-01-30T08:49:21;102214.03;;;4.51;100.00
18985;BME280;9626;52.552;13.436;2024-01-30T08:51:47;102220.41;;;4.89;100.00
18985;BME280;9626;52.552;13.436;2024-01-30T08:54:13;102218.75;;;5.25;98.68
18985;BME280;9626;52.552;13.436;2024-01-30T08:56:39;102225.56;;;5.52;96.25
18985;BME280;9626;52.552;13.436;2024-01-30T08:59:05;102224.06;;;5.62;94.12
18985;BME280;9626;52.552;13.436;2024-01-30T09:01:31;102229.59;;;5.72;92.72
18985;BME280;9626;52.552;13.436;2024-01-30T09:03:57;102228.91;;;5.80;92.69
18985;BME280;9626;52.552;13.436;2024-01-30T09:06:23;102222.00;;;5.85;91.42
18985;BME280;9626;52.552;13.436;2024-01-30T09:08:52;102221.56;;;5.66;92.15
18985;BME280;9626;52.552;13.436;2024-01-30T09:11:20;102217.44;;;6.13;89.48
18985;BME280;9626;52.552;13.436;2024-01-30T09:13:46;102218.06;;;6.02;88.71
18985;BME280;9626;52.552;13.436;2024-01-30T09:16:12;102227.16;;;5.80;88.52
18985;BME280;9626;52.552;13.436;2024-01-30T09:18:39;102230.81;;;5.87;89.11
18985;BME280;9626;52.552;13.436;2024-01-30T09:21:06;102224.13;;;5.63;90.56
18985;BME280;9626;52.552;13.436;2024-01-30T09:23:32;102226.47;;;5.89;89.35
18985;BME280;9626;52.552;13.436;2024-01-30T09:25:59;102225.13;;;6.03;88.66
18985;BME280;9626;52.552;13.436;2024-01-30T09:28:25;102232.75;;;5.94;86.93
18985;BME280;9626;52.552;13.436;2024-01-30T09:30:52;102231.72;;;5.89;87.15
18985;BME280;9626;52.552;13.436;2024-01-30T09:33:18;102229.34;;;6.35;85.61
18985;BME280;9626;52.552;13.436;2024-01-30T09:35:44;102232.50;;;6.20;84.60
18985;BME280;9626;52.552;13.436;2024-01-30T09:38:10;102231.50;;;6.15;83.81
18985;BME280;9626;52.552;13.436;2024-01-30T09:40:36;102237.25;;;5.98;84.17
18985;BME280;9626;52.552;13.436;2024-01-30T09:43:02;102231.38;;;6.08;83.40
18985;BME280;9626;52.552;13.436;2024-01-30T09:45:29;102228.69;;;6.05;82.41
18985;BME280;9626;52.552;13.436;2024-01-30T09:47:55;102220.19;;;6.19;82.19
18985;BME280;9626;52.552;13.436;2024-01-30T09:50:22;102220.41;;;6.28;81.61
18985;BME280;9626;52.552;13.436;2024-01-30T09:52:48;102220.41;;;6.28;80.23
18985;BME280;9626;52.552;13.436;2024-01-30T09:55:14;102224.03;;;6.33;80.68
18985;BME280;9626;52.552;13.436;2024-01-30T09:57:41;102227.53;;;6.32;79.83
18985;BME280;9626;52.552;13.436;2024-01-30T10:00:08;102217.16;;;6.81;77.91
18985;BME280;9626;52.552;13.436;2024-01-30T10:02:38;102224.19;;;6.81;76.44
18985;BME280;9626;52.552;13.436;2024-01-30T10:05:04;102228.28;;;7.10;74.70
18985;BME280;9626;52.552;13.436;2024-01-30T10:07:31;102228.28;;;7.10;74.28
18985;BME280;9626;52.552;13.436;2024-01-30T10:09:57;102222.66;;;7.39;72.67
18985;BME280;9626;52.552;13.436;2024-01-30T10:12:25;102226.97;;;7.36;71.36
18985;BME280;9626;52.552;13.436;2024-01-30T10:14:51;102210.88;;;7.69;73.13
18985;BME280;9626;52.552;13.436;2024-01-30T10:17:17;102221.09;;;7.51;71.38
18985;BME280;9626;52.552;13.436;2024-01-30T10:19:43;102217.47;;;7.45;70.74
18985;BME280;9626;52.552;13.436;2024-01-30T10:22:10;102219.00;;;7.31;71.53
18985;BME280;9626;52.552;13.436;2024-01-30T10:24:37;102207.31;;;7.17;70.38
18985;BME280;9626;52.552;13.436;2024-01-30T10:27:03;102211.66;;;7.15;71.49
18985;BME280;9626;52.552;13.436;2024-01-30T10:29:31;102201.63;;;7.42;69.38
18985;BME280;9626;52.552;13.436;2024-01-30T10:32:01;102208.28;;;7.22;69.99
18985;BME280;9626;52.552;13.436;2024-01-30T10:34:28;102205.88;;;7.36;69.14
18985;BME280;9626;52.552;13.436;2024-01-30T10:37:09;102204.09;;;7.35;69.11
18985;BME280;9626;52.552;13.436;2024-01-30T10:39:42;102195.72;;;7.08;69.70
18985;BME280;9626;52.552;13.436;2024-01-30T10:42:15;102196.75;;;7.15;70.11
18985;BME280;9626;52.552;13.436;2024-01-30T10:47:18;102205.47;;;7.63;67.49
18985;BME280;9626;52.552;13.436;2024-01-30T10:49:47;102206.28;;;7.57;67.17
18985;BME280;9626;52.552;13.436;2024-01-30T10:52:13;102209.34;;;7.85;65.84
18985;BME280;9626;52.552;13.436;2024-01-30T10:54:40;102208.06;;;7.60;66.12
18985;BME280;9626;52.552;13.436;2024-01-30T10:57:11;102210.28;;;7.87;64.98
18985;BME280;9626;52.552;13.436;2024-01-30T10:59:38;102207.50;;;7.79;64.06
18985;BME280;9626;52.552;13.436;2024-01-30T11:02:05;102200.13;;;7.57;65.20
18985;BME280;9626;52.552;13.436;2024-01-30T11:04:40;102195.91;;;8.28;63.63
18985;BME280;9626;52.552;13.436;2024-01-30T11:07:24;102207.66;;;8.49;61.91
18985;BME280;9626;52.552;13.436;2024-01-30T11:09:51;102202.91;;;8.26;62.41
18985;BME280;9626;52.552;13.436;2024-01-30T11:12:27;102196.97;;;7.81;63.64
18985;BME280;9626;52.552;13.436;2024-01-30T11:15:13;102209.66;;;8.05;63.30
18985;BME280;9626;52.552;13.436;2024-01-30T11:22:45;102193.28;;;8.28;62.68
18985;BME280;9626;52.552;13.436;2024-01-30T11:25:15;102187.50;;;7.94;63.53
18985;BME280;9626;52.552;13.436;2024-01-30T11:27:43;102193.78;;;8.01;63.81
18985;BME280;9626;52.552;13.436;2024-01-30T11:30:10;102193.88;;;8.08;63.31
18985;BME280;9626;52.552;13.436;2024-01-30T11:32:36;102178.47;;;8.39;63.02
18985;BME280;9626;52.552;13.436;2024-01-30T11:35:04;102184.59;;;8.38;62.89
18985;BME280;9626;52.552;13.436;2024-01-30T11:37:37;102183.56;;;8.25;63.06
18985;BME280;9626;52.552;13.436;2024-01-30T11:40:04;102183.44;;;8.16;63.45
18985;BME280;9626;52.552;13.436;2024-01-30T11:42:31;102186.88;;;8.12;63.64
18985;BME280;9626;52.552;13.436;2024-01-30T11:44:59;102180.47;;;7.94;64.42
18985;BME280;9626;52.552;13.436;2024-01-30T11:47:26;102189.56;;;8.15;64.16
18985;BME280;9626;52.552;13.436;2024-01-30T11:49:53;102179.28;;;8.35;63.88
18985;BME280;9626;52.552;13.436;2024-01-30T11:52:19;102183.72;;;8.36;63.47
18985;BME280;9626;52.552;13.436;2024-01-30T11:54:45;102187.75;;;8.11;64.06
18985;BME280;9626;52.552;13.436;2024-01-30T11:57:11;102176.66;;;7.74;65.90
18985;BME280;9626;52.552;13.436;2024-01-30T11:59:37;102173.69;;;8.12;65.09
18985;BME280;9626;52.552;13.436;2024-01-30T12:02:03;102174.63;;;8.16;64.68
18985;BME280;9626;52.552;13.436;2024-01-30T12:04:30;102169.72;;;8.43;63.94
18985;BME280;9626;52.552;13.436;2024-01-30T12:06:56;102169.66;;;8.36;64.37
18985;BME280;9626;52.552;13.436;2024-01-30T12:09:22;102174.78;;;8.26;64.62
18985;BME280;9626;52.552;13.436;2024-01-30T12:11:48;102166.94;;;8.31;64.37
18985;BME280;9626;52.552;13.436;2024-01-30T12:14:18;102163.56;;;8.41;64.24
18985;BME280;9626;52.552;13.436;2024-01-30T12:16:48;102154.88;;;8.49;64.05
18985;BME280;9626;52.552;13.436;2024-01-30T12:19:24;102157.81;;;8.75;63.64
18985;BME280;9626;52.552;13.436;2024-01-30T12:21:57;102154.00;;;8.50;63.90
18985;BME280;9626;52.552;13.436;2024-01-30T12:24:27;102150.44;;;9.29;61.76
18985;BME280;9626;52.552;13.436;2024-01-30T12:26:57;102140.06;;;9.54;61.35
18985;BME280;9626;52.552;13.436;2024-01-30T12:29:23;102140.28;;;9.83;60.12
18985;BME280;9626;52.552;13.436;2024-01-30T12:31:52;102134.75;;;9.49;61.03
18985;BME280;9626;52.552;13.436;2024-01-30T12:34:19;102132.22;;;9.66;60.44
18985;BME280;9626;52.552;13.436;2024-01-30T12:36:49;102127.00;;;9.77;59.77
18985;BME280;9626;52.552;13.436;2024-01-30T12:39:16;102121.47;;;9.46;60.66
18985;BME280;9626;52.552;13.436;2024-01-30T12:41:42;102119.16;;;8.82;63.11
18985;BME280;9626;52.552;13.436;2024-01-30T12:44:08;102112.13;;;8.82;63.14
18985;BME280;9626;52.552;13.436;2024-01-30T12:46:34;102110.78;;;9.29;62.63
18985;BME280;9626;52.552;13.436;2024-01-30T12:49:00;102105.44;;;9.23;62.34
18985;BME280;9626;52.552;13.436;2024-01-30T12:51:26;102113.97;;;8.91;62.92
18985;BME280;9626;52.552;13.436;2024-01-30T12:53:53;102103.25;;;8.75;64.37
18985;BME280;9626;52.552;13.436;2024-01-30T12:56:19;102105.41;;;9.17;63.46
18985;BME280;9626;52.552;13.436;2024-01-30T12:58:45;102100.38;;;9.51;62.35
18985;BME280;9626;52.552;13.436;2024-01-30T13:01:11;102105.56;;;9.38;62.66